Time;durP1;ratioP1;P1;durP2;ratioP2;P2;SDS_P1;SDS_P2;PMS_P1;PMS_P2;Temp;Humidity;BMP_temperature;BMP_pressure;BME280_temperature;BME280_humidity;BME280_pressure;Samples;Min_cycle;Max_cycle;Signal;HPM_P1;HPM_P2
2022/06/22 06:50:18;;;;;;;2.08;0.22;;;24.90;64.20;;;;;;5111033;27;20434;-81
2022/06/22 06:53:33;;;;;;;1.92;0.32;;;24.60;51.60;;;;;;5068097;27;1327520;-72
2022/06/22 06:56:16;;;;;;;5.63;1.15;;;23.90;53.80;;;;;;5090044;28;20035;-73
2022/06/22 06:58:45;;;;;;;4.03;0.13;;;23.20;55.60;;;;;;5090108;28;20028;-71
2022/06/22 07:01:27;;;;;;;2.83;0.52;;;22.90;55.50;;;;;;5090124;28;20020;-72
2022/06/22 07:03:58;;;;;;;0.52;0.52;;;22.60;54.40;;;;;;5089340;28;20390;-72
2022/06/22 07:06:25;;;;;;;1.77;0.70;;;22.50;56.50;;;;;;5088398;28;20051;-73
2022/06/22 07:09:00;;;;;;;9.98;1.40;;;22.30;58.10;;;;;;5090160;28;20016;-72
2022/06/22 07:11:35;;;;;;;2.08;0.50;;;22.30;56.50;;;;;;5090023;28;20036;-71
2022/06/22 07:14:16;;;;;;;1.55;0.22;;;22.40;55.30;;;;;;5090331;28;20081;-71
2022/06/22 07:16:42;;;;;;;10.43;0.85;;;22.50;53.90;;;;;;5090157;28;20031;-71
2022/06/22 07:19:31;;;;;;;3.53;0.57;;;22.50;54.80;;;;;;5089954;28;20028;-71
2022/06/22 07:22:12;;;;;;;0.25;0.20;;;22.70;53.80;;;;;;5089893;28;20012;-71
2022/06/22 07:24:44;;;;;;;0.77;0.10;;;22.50;54.50;;;;;;5089734;28;20050;-71
2022/06/22 07:27:10;;;;;;;3.22;0.43;;;22.50;53.20;;;;;;5082540;28;20029;-71
2022/06/22 07:29:47;;;;;;;2.28;0.30;;;22.50;52.30;;;;;;5069446;28;20092;-72
2022/06/22 07:32:25;;;;;;;9.98;1.10;;;22.50;54.30;;;;;;5069266;28;20028;-73
2022/06/22 07:35:24;;;;;;;3.10;0.68;;;22.40;54.50;;;;;;5069155;28;20021;-71
2022/06/22 07:38:21;;;;;;;0.25;0.17;;;22.20;54.30;;;;;;5044922;28;20032;-71
2022/06/22 07:43:33;;;;;;;1.50;1.30;;;22.40;53.90;;;;;;5069810;28;20035;-71
2022/06/22 07:45:59;;;;;;;1.60;0.30;;;22.40;53.80;;;;;;5069077;28;20029;-71
2022/06/22 07:48:28;;;;;;;2.00;0.30;;;22.50;53.70;;;;;;5067702;28;20067;-71
2022/06/22 07:50:57;;;;;;;0.95;0.15;;;22.20;55.30;;;;;;5068914;28;20052;-71
2022/06/22 07:53:46;;;;;;;1.73;0.25;;;22.20;55.50;;;;;;5068329;28;20060;-72
2022/06/22 07:56:21;;;;;;;0.88;0.10;;;22.20;55.60;;;;;;5030655;28;20494;-76
2022/06/22 07:58:58;;;;;;;1.50;0.82;;;22.30;55.80;;;;;;5067762;28;20021;-79
2022/06/22 08:01:40;;;;;;;7.97;0.10;;;22.20;57.70;;;;;;5067678;28;20059;-83
2022/06/22 08:04:31;;;;;;;2.28;0.40;;;22.30;58.10;;;;;;5058906;28;20116;-80
2022/06/22 08:07:11;;;;;;;4.25;0.52;;;22.20;57.80;;;;;;5054050;28;20033;-84
2022/06/22 08:09:55;;;;;;;0.73;0.30;;;22.30;60.50;;;;;;5055563;28;20079;-77
2022/06/22 08:12:27;;;;;;;1.35;0.50;;;22.40;56.90;;;;;;5055478;28;20425;-75
2022/06/22 08:14:54;;;;;;;2.05;0.22;;;22.40;56.00;;;;;;5055287;28;20035;-74
2022/06/22 08:17:41;;;;;;;3.55;0.70;;;22.50;56.80;;;;;;5055069;28;20025;-73
2022/06/22 08:20:08;;;;;;;0.35;0.20;;;22.40;58.20;;;;;;5055310;28;20079;-72
2022/06/22 08:22:34;;;;;;;3.25;0.47;;;22.50;57.00;;;;;;5055083;28;20100;-75
2022/06/22 08:25:03;;;;;;;2.72;0.38;;;22.50;56.90;;;;;;5053807;28;20120;-75
2022/06/22 08:27:30;;;;;;;2.40;0.80;;;22.60;58.30;;;;;;5054934;28;20032;-75
2022/06/22 08:29:58;;;;;;;6.68;0.65;;;22.70;56.30;;;;;;5053718;28;20573;-75
2022/06/22 08:32:48;;;;;;;0.88;0.50;;;22.80;55.40;;;;;;5055524;28;20112;-76
2022/06/22 08:35:27;;;;;;;0.93;0.10;;;22.90;53.10;;;;;;5055381;28;20091;-76
2022/06/22 08:38:14;;;;;;;2.38;0.28;;;22.90;52.10;;;;;;5053797;28;20036;-81
2022/06/22 08:41:16;;;;;;;1.85;0.43;;;22.90;54.80;;;;;;5055032;28;20052;-80
2022/06/22 08:43:46;;;;;;;27.67;0.80;;;23.10;52.60;;;;;;5016594;28;20036;-82
2022/06/22 08:46:39;;;;;;;0.95;0.10;;;23.20;51.20;;;;;;5053869;28;20023;-84
2022/06/22 08:49:19;;;;;;;1.40;0.47;;;23.30;50.00;;;;;;5054885;28;20363;-76
2022/06/22 08:52:00;;;;;;;0.80;0.00;;;23.30;49.20;;;;;;5053041;28;20045;-77
2022/06/22 08:54:52;;;;;;;1.85;0.00;;;23.40;47.90;;;;;;5054682;28;20052;-76
2022/06/22 08:57:38;;;;;;;2.88;0.88;;;23.40;47.30;;;;;;5054521;28;20386;-76
2022/06/22 09:00:04;;;;;;;1.63;0.25;;;23.30;47.10;;;;;;5054684;28;20040;-76
2022/06/22 09:02:33;;;;;;;0.50;0.20;;;23.40;48.40;;;;;;5054675;28;20013;-75
2022/06/22 09:05:15;;;;;;;0.82;0.60;;;23.50;47.10;;;;;;5053165;28;20025;-74
2022/06/22 09:08:15;;;;;;;0.15;0.10;;;23.50;47.40;;;;;;5054496;28;20546;-74
2022/06/22 09:10:59;;;;;;;0.20;0.00;;;23.60;48.10;;;;;;5054439;28;20075;-74
2022/06/22 09:13:46;;;;;;;2.95;2.45;;;23.60;47.90;;;;;;5052843;28;20128;-75
2022/06/22 09:16:44;;;;;;;2.13;0.60;;;23.70;49.10;;;;;;5053415;28;20545;-77
2022/06/22 09:19:44;;;;;;;8.98;1.08;;;23.70;48.70;;;;;;5054338;28;20497;-78
2022/06/22 09:22:19;;;;;;;0.75;0.75;;;23.90;48.00;;;;;;5052815;28;20033;-76
2022/06/22 09:24:50;;;;;;;0.30;0.30;;;24.00;48.90;;;;;;5052676;28;20544;-75
2022/06/22 09:27:24;;;;;;;0.57;0.13;;;24.10;46.50;;;;;;5051292;28;20490;-73
2022/06/22 09:30:09;;;;;;;0.33;0.00;;;24.20;45.10;;;;;;5053373;28;20359;-71
2022/06/22 09:32:38;;;;;;;0.45;0.10;;;24.20;45.10;;;;;;5052617;28;20398;-73
2022/06/22 09:35:13;;;;;;;0.90;0.20;;;24.10;45.10;;;;;;5052791;28;20079;-73
2022/06/22 09:38:02;;;;;;;1.70;0.10;;;24.10;46.40;;;;;;5052428;28;20025;-73
2022/06/22 09:40:45;;;;;;;7.82;1.02;;;24.20;45.90;;;;;;5053852;28;20036;-73
2022/06/22 09:43:35;;;;;;;8.57;0.47;;;24.30;46.60;;;;;;5053678;28;20025;-72
2022/06/22 09:46:21;;;;;;;1.40;0.30;;;24.30;46.70;;;;;;5053107;28;20045;-74
2022/06/22 09:49:18;;;;;;;0.38;0.10;;;24.40;46.30;;;;;;5052743;28;20035;-73
2022/06/22 09:52:15;;;;;;;0.40;0.20;;;24.50;44.70;;;;;;5054529;28;20056;-72
2022/06/22 09:58:16;;;;;;;6.05;0.38;;;24.60;44.50;;;;;;5048072;28;20048;-72
2022/06/22 10:01:03;;;;;;;2.83;0.20;;;24.60;44.50;;;;;;5026210;28;20459;-73
2022/06/22 10:03:59;;;;;;;1.85;0.20;;;24.60;44.30;;;;;;5030971;28;20021;-72
2022/06/22 10:06:37;;;;;;;9.10;5.13;;;24.70;44.70;;;;;;5052939;28;20052;-74
2022/06/22 10:09:47;;;;;;;0.15;0.15;;;24.80;45.40;;;;;;5055569;28;20155;-74
2022/06/22 10:12:43;;;;;;;0.65;0.10;;;24.80;45.40;;;;;;5056843;28;20029;-72
2022/06/22 10:15:51;;;;;;;7.90;1.48;;;24.80;46.00;;;;;;5040172;28;20031;-73
2022/06/22 10:18:20;;;;;;;2.13;0.10;;;24.90;45.10;;;;;;5028692;28;20033;-74
2022/06/22 10:20:55;;;;;;;2.47;0.50;;;24.80;44.40;;;;;;5065991;28;20024;-73
2022/06/22 10:23:52;;;;;;;2.42;1.48;;;24.90;46.30;;;;;;5063972;28;20021;-72
2022/06/22 10:26:32;;;;;;;0.10;0.10;;;25.00;44.60;;;;;;5076893;28;20033;-72
2022/06/22 10:29:15;;;;;;;1.65;0.68;;;25.10;44.60;;;;;;5052241;28;20052;-72
2022/06/22 10:32:16;;;;;;;4.80;0.60;;;25.20;49.60;;;;;;5040007;28;20047;-72
2022/06/22 10:34:54;;;;;;;3.40;0.57;;;25.30;44.60;;;;;;5035876;28;20313;-72
2022/06/22 10:37:29;;;;;;;2.45;0.20;;;25.40;49.60;;;;;;5053281;28;20445;-73
2022/06/22 10:40:12;;;;;;;2.55;0.50;;;25.40;46.80;;;;;;5051933;28;20027;-72
2022/06/22 10:46:00;;;;;;;0.85;0.10;;;25.60;44.20;;;;;;5051729;28;20489;-72
2022/06/22 10:48:47;;;;;;;0.30;0.00;;;25.60;42.60;;;;;;5079969;28;20035;-72
2022/06/22 10:51:19;;;;;;;4.57;0.08;;;25.50;40.30;;;;;;5043520;28;20017;-74
2022/06/22 10:54:22;;;;;;;0.25;0.03;;;25.50;41.50;;;;;;5055412;28;20075;-73
2022/06/22 10:56:55;;;;;;;0.00;0.00;;;25.60;41.10;;;;;;5069022;28;20032;-73
2022/06/22 10:59:34;;;;;;;0.80;0.35;;;25.70;42.70;;;;;;5052424;28;20065;-73
2022/06/22 11:02:34;;;;;;;0.60;0.00;;;25.80;39.30;;;;;;5060994;28;20548;-73
2022/06/22 11:05:37;;;;;;;0.55;0.30;;;25.80;42.60;;;;;;5065455;28;20415;-73
2022/06/22 11:08:21;;;;;;;3.78;0.00;;;25.90;40.00;;;;;;5059955;28;20115;-72
2022/06/22 11:10:58;;;;;;;0.30;0.00;;;25.90;39.90;;;;;;5062530;28;20028;-72
2022/06/22 11:13:45;;;;;;;1.13;0.50;;;26.00;42.40;;;;;;5065772;28;20029;-72
2022/06/22 11:16:48;;;;;;;2.53;0.50;;;26.00;40.90;;;;;;5062061;28;20078;-73
2022/06/22 11:19:38;;;;;;;0.00;0.00;;;26.00;40.40;;;;;;5039683;28;20078;-72
2022/06/22 11:22:22;;;;;;;4.40;0.03;;;26.00;38.80;;;;;;5061229;28;20063;-72
2022/06/22 11:25:18;;;;;;;0.20;0.20;;;26.00;39.90;;;;;;5040289;28;20086;-73
2022/06/22 11:31:32;;;;;;;1.17;0.00;;;26.00;42.00;;;;;;4967925;28;20041;-72
2022/06/22 11:34:03;;;;;;;1.30;0.00;;;26.10;42.00;;;;;;5049533;28;20021;-74
2022/06/22 11:36:29;;;;;;;0.00;0.00;;;26.10;41.90;;;;;;5054155;28;20017;-74
2022/06/22 11:39:14;;;;;;;3.83;0.22;;;26.20;42.30;;;;;;5057482;28;20025;-75
2022/06/22 11:41:48;;;;;;;;;;;26.30;41.90;;;;;;5073060;28;20382;-73
2022/06/22 11:44:35;;;;;;;1.90;0.10;;;26.30;42.30;;;;;;5061967;28;20389;-73
2022/06/22 11:47:11;;;;;;;15.50;4.47;;;26.30;43.20;;;;;;5056969;28;20104;-74
2022/06/22 11:49:55;;;;;;;3.55;1.02;;;26.30;43.70;;;;;;5059587;28;20042;-74
2022/06/22 11:52:29;;;;;;;0.75;0.00;;;26.40;43.20;;;;;;5064983;28;20567;-74
2022/06/22 11:55:20;;;;;;;0.93;0.00;;;26.50;40.60;;;;;;5058881;28;20033;-74
2022/06/22 11:58:04;;;;;;;0.70;0.08;;;26.40;40.40;;;;;;5053906;28;20033;-74
2022/06/22 12:01:00;;;;;;;15.93;2.35;;;26.40;41.00;;;;;;5053466;28;20028;-74
2022/06/22 12:03:45;;;;;;;0.00;0.00;;;26.40;42.90;;;;;;5058508;28;20036;-73
2022/06/22 12:06:25;;;;;;;;;;;26.50;39.70;;;;;;5054887;28;20037;-73
2022/06/22 12:09:03;;;;;;;0.35;0.00;;;26.50;40.70;;;;;;5045482;28;19909;-72
2022/06/22 12:12:05;;;;;;;0.00;0.00;;;26.60;42.10;;;;;;5055833;28;20048;-75
2022/06/22 12:15:06;;;;;;;0.95;0.17;;;26.50;42.00;;;;;;5025324;28;20095;-73
2022/06/22 12:17:50;;;;;;;1.13;0.03;;;26.50;43.30;;;;;;5047224;28;20041;-74
2022/06/22 12:20:19;;;;;;;;;;;26.60;42.60;;;;;;5039229;28;20163;-74
2022/06/22 12:23:04;;;;;;;1.85;0.00;;;26.60;43.10;;;;;;5049330;28;19923;-75
2022/06/22 12:25:57;;;;;;;1.38;0.03;;;26.60;43.20;;;;;;5034973;28;20029;-74
2022/06/22 12:28:37;;;;;;;3.70;2.10;;;26.70;42.90;;;;;;5045259;28;20055;-73
2022/06/22 12:31:17;;;;;;;0.98;0.40;;;26.80;43.40;;;;;;5047170;28;20027;-73
2022/06/22 12:33:59;;;;;;;1.38;0.20;;;26.80;44.90;;;;;;5046463;28;20040;-73
2022/06/22 12:36:49;;;;;;;0.52;0.43;;;26.70;45.80;;;;;;5051017;28;20517;-73
2022/06/22 12:39:24;;;;;;;2.00;0.20;;;26.70;44.80;;;;;;5039907;28;20042;-73
2022/06/22 12:42:17;;;;;;;0.45;0.45;;;26.80;45.20;;;;;;5033640;28;20031;-72
2022/06/22 12:45:04;;;;;;;2.53;0.75;;;26.90;44.90;;;;;;5043738;28;20749;-73
2022/06/22 12:47:50;;;;;;;0.45;0.20;;;27.00;46.00;;;;;;5054666;28;20025;-73
2022/06/22 12:50:19;;;;;;;3.05;0.65;;;27.00;47.50;;;;;;5046761;28;20029;-71
2022/06/22 12:52:52;;;;;;;1.08;0.43;;;27.00;48.30;;;;;;5054250;28;20052;-72
2022/06/22 12:55:32;;;;;;;8.60;2.70;;;27.10;45.00;;;;;;5054638;28;20107;-72
2022/06/22 12:58:06;;;;;;;14.70;4.07;;;27.10;44.90;;;;;;5054754;28;20079;-72
2022/06/22 13:00:34;;;;;;;8.85;7.47;;;27.00;44.50;;;;;;5052533;28;20542;-72
2022/06/22 13:03:00;;;;;;;17.48;3.67;;;27.00;44.20;;;;;;5047386;28;20033;-72
2022/06/22 13:05:31;;;;;;;27.90;8.20;;;27.10;46.20;;;;;;5054587;28;20078;-72
2022/06/22 13:08:17;;;;;;;7.45;0.95;;;27.10;46.10;;;;;;5054360;28;20032;-73
2022/06/22 13:10:45;;;;;;;0.00;0.00;;;27.20;44.50;;;;;;5051447;28;20037;-71
2022/06/22 13:13:22;;;;;;;1.83;1.02;;;27.20;44.60;;;;;;5053868;28;20082;-70
2022/06/22 13:15:56;;;;;;;3.92;0.40;;;27.20;45.70;;;;;;5053717;28;20056;-71
2022/06/22 13:18:28;;;;;;;5.00;0.40;;;27.20;45.50;;;;;;5054246;28;20017;-70
2022/06/22 13:21:12;;;;;;;3.20;0.10;;;27.20;46.30;;;;;;5052743;28;20028;-71
2022/06/22 13:23:54;;;;;;;7.15;5.85;;;27.30;45.20;;;;;;5047993;28;20364;-71
2022/06/22 13:26:47;;;;;;;7.88;1.30;;;27.50;45.90;;;;;;5055890;28;20040;-71
2022/06/22 13:29:16;;;;;;;3.90;0.20;;;27.40;46.40;;;;;;5067789;28;20120;-69
2022/06/22 13:31:44;;;;;;;3.80;0.22;;;27.40;45.50;;;;;;5058292;28;20133;-69
2022/06/22 13:34:15;;;;;;;2.15;0.77;;;27.50;47.50;;;;;;5063160;28;20112;-69
2022/06/22 13:37:18;;;;;;;2.38;0.52;;;27.50;46.80;;;;;;5067424;28;20021;-70
2022/06/22 13:40:11;;;;;;;3.10;0.20;;;27.50;46.90;;;;;;5051427;28;20024;-71
2022/06/22 13:43:11;;;;;;;3.42;0.38;;;27.50;46.60;;;;;;5059957;28;20090;-72
2022/06/22 13:45:41;;;;;;;3.08;0.35;;;27.50;46.10;;;;;;5042601;28;20073;-72
2022/06/22 13:48:18;;;;;;;0.40;0.25;;;27.60;47.40;;;;;;5052438;28;20024;-72
2022/06/22 13:51:29;;;;;;;1.30;0.43;;;27.60;46.50;;;;;;5053335;28;20029;-71
2022/06/22 13:54:27;;;;;;;6.40;1.08;;;27.60;47.00;;;;;;5051874;28;20149;-73
2022/06/22 13:57:14;;;;;;;1.15;0.22;;;27.50;47.90;;;;;;5043872;28;20535;-76
2022/06/22 14:00:07;;;;;;;4.20;0.70;;;27.50;47.50;;;;;;5033450;28;20025;-73
2022/06/22 14:02:58;;;;;;;0.63;0.30;;;27.50;49.60;;;;;;5041878;28;20033;-72
2022/06/22 14:05:58;;;;;;;1.80;0.55;;;27.40;46.50;;;;;;5038573;28;20479;-73
2022/06/22 14:09:05;;;;;;;0.70;0.65;;;27.40;47.10;;;;;;5047263;28;20518;-71
2022/06/22 14:11:41;;;;;;;0.55;0.55;;;27.30;47.10;;;;;;4991742;28;20397;-71
2022/06/22 14:14:36;;;;;;;2.08;0.25;;;27.40;48.00;;;;;;4989443;28;20057;-73
2022/06/22 14:17:14;;;;;;;2.28;0.20;;;27.40;47.40;;;;;;4991458;28;20035;-69
2022/06/22 14:20:26;;;;;;;2.47;1.27;;;27.40;48.50;;;;;;4991573;28;20042;-69
2022/06/22 14:22:55;;;;;;;3.70;2.03;;;27.30;47.80;;;;;;4990458;28;20435;-67
2022/06/22 14:25:30;;;;;;;2.38;0.20;;;27.30;48.10;;;;;;4974833;28;20018;-77
2022/06/22 14:28:05;;;;;;;0.82;0.10;;;27.30;49.10;;;;;;4990096;28;20026;-68
2022/06/22 14:30:46;;;;;;;0.63;0.20;;;27.40;49.00;;;;;;4990891;28;20042;-65
2022/06/22 14:33:33;;;;;;;0.55;0.20;;;27.50;49.20;;;;;;4987790;28;20161;-66
2022/06/22 14:36:24;;;;;;;2.72;0.50;;;27.50;49.20;;;;;;4988952;28;20049;-68
2022/06/22 14:39:01;;;;;;;0.55;0.30;;;27.40;49.20;;;;;;4989530;28;20026;-66
2022/06/22 14:41:39;;;;;;;9.95;1.65;;;27.40;47.60;;;;;;4998035;28;20052;-66
2022/06/22 14:44:16;;;;;;;15.45;2.80;;;27.30;48.70;;;;;;5032986;28;20026;-66
2022/06/22 14:47:19;;;;;;;52.63;8.02;;;27.30;48.70;;;;;;5032919;28;20017;-66
2022/06/22 14:50:03;;;;;;;7.10;1.40;;;27.30;48.70;;;;;;5032926;28;20024;-68
2022/06/22 14:52:47;;;;;;;1.38;0.55;;;27.30;49.80;;;;;;5032555;28;20052;-68
2022/06/22 14:55:20;;;;;;;0.60;0.45;;;27.30;48.60;;;;;;5033112;28;20029;-66
2022/06/22 14:57:58;;;;;;;3.63;0.70;;;27.20;50.30;;;;;;5031446;28;20055;-66
2022/06/22 15:00:30;;;;;;;0.77;0.77;;;27.30;48.40;;;;;;5032720;28;20029;-66
2022/06/22 15:03:11;;;;;;;3.53;0.52;;;27.20;48.80;;;;;;5032847;28;20025;-66
2022/06/22 15:05:56;;;;;;;0.80;0.30;;;27.20;48.90;;;;;;5032868;28;20045;-66
2022/06/22 15:08:34;;;;;;;4.85;0.20;;;27.30;50.20;;;;;;5032736;28;20036;-66
2022/06/22 15:14:49;;;;;;;4.13;0.30;;;27.20;50.70;;;;;;5035176;28;20103;-66
2022/06/22 15:17:23;;;;;;;0.60;0.57;;;27.30;51.40;;;;;;5035776;28;20482;-67
2022/06/22 15:19:58;;;;;;;1.45;0.70;;;27.20;50.90;;;;;;5036860;28;20026;-66
2022/06/22 15:22:45;;;;;;;3.05;0.50;;;27.20;49.80;;;;;;5037046;28;20033;-66
2022/06/22 15:25:30;;;;;;;13.55;2.28;;;27.20;49.00;;;;;;5036528;28;20029;-66
2022/06/22 15:28:29;;;;;;;2.60;1.10;;;27.20;49.80;;;;;;5036533;28;20025;-65
2022/06/22 15:31:22;;;;;;;1.38;0.25;;;27.20;51.00;;;;;;5036598;28;20044;-67
2022/06/22 15:34:04;;;;;;;1.55;0.43;;;27.20;49.90;;;;;;5036356;28;20120;-65
2022/06/22 15:36:40;;;;;;;8.68;4.50;;;27.10;50.60;;;;;;5036386;28;20032;-66
2022/06/22 15:39:33;;;;;;;3.25;2.70;;;27.00;52.30;;;;;;5036468;28;20470;-66
2022/06/22 15:42:20;;;;;;;4.80;3.03;;;26.90;51.30;;;;;;5036171;28;20022;-66
2022/06/22 15:44:55;;;;;;;14.48;3.60;;;26.90;52.80;;;;;;5036286;28;20052;-65
2022/06/22 15:47:32;;;;;;;13.98;3.53;;;26.90;52.40;;;;;;5036386;28;20033;-69
2022/06/22 15:50:31;;;;;;;3.80;0.75;;;26.90;53.10;;;;;;5036467;28;20037;-67
2022/06/22 15:53:12;;;;;;;1.65;1.48;;;26.90;51.50;;;;;;5036066;28;20503;-67
2022/06/22 15:55:50;;;;;;;15.45;5.05;;;26.90;51.10;;;;;;5035958;28;20018;-68
2022/06/22 15:58:34;;;;;;;5.47;1.70;;;26.90;51.70;;;;;;5035840;28;20026;-69
2022/06/22 16:01:16;;;;;;;1.30;0.87;;;26.90;50.80;;;;;;5036137;28;20021;-69
2022/06/22 16:03:46;;;;;;;2.30;0.40;;;26.90;52.70;;;;;;5035789;28;20024;-69
2022/06/22 16:06:25;;;;;;;12.88;0.85;;;26.90;51.60;;;;;;5035973;28;20028;-69
2022/06/22 16:08:53;;;;;;;2.08;0.60;;;26.80;52.40;;;;;;5035912;28;20068;-69
2022/06/22 16:14:45;;;;;;;2.85;0.32;;;26.80;51.10;;;;;;5032659;28;20043;-67
2022/06/22 16:17:16;;;;;;;;;;;26.80;51.70;;;;;;5036247;28;20455;-67
2022/06/22 16:20:00;;;;;;;4.35;1.38;;;26.80;51.80;;;;;;5035470;28;19905;-68
2022/06/22 16:22:36;;;;;;;9.10;2.00;;;26.80;51.90;;;;;;5035557;28;20068;-67
2022/06/22 16:25:17;;;;;;;3.70;1.20;;;26.80;52.50;;;;;;5035134;28;20026;-67
2022/06/22 16:28:11;;;;;;;5.20;1.25;;;26.80;51.50;;;;;;5035137;28;20022;-67
2022/06/22 16:31:12;;;;;;;1.83;0.77;;;26.80;51.90;;;;;;5035449;28;20029;-67
2022/06/22 16:33:40;;;;;;;6.38;1.38;;;26.80;51.70;;;;;;5003130;28;20123;-67
2022/06/22 16:36:06;;;;;;;7.75;2.05;;;26.70;52.60;;;;;;5035369;28;20025;-67
2022/06/22 16:38:56;;;;;;;1.10;0.65;;;26.70;51.70;;;;;;5035149;28;20371;-67
2022/06/22 16:41:40;;;;;;;3.15;0.82;;;26.70;50.00;;;;;;5035102;28;20041;-66
2022/06/22 16:44:15;;;;;;;4.23;1.27;;;26.80;52.20;;;;;;5035060;28;20083;-67
2022/06/22 16:46:50;;;;;;;5.82;1.92;;;26.70;52.10;;;;;;5035020;28;20100;-67
2022/06/22 16:49:23;;;;;;;3.15;1.15;;;26.70;52.60;;;;;;5034949;28;20064;-67
2022/06/22 16:52:12;;;;;;;7.43;0.90;;;26.70;51.10;;;;;;5034649;28;20037;-66
2022/06/22 16:54:42;;;;;;;9.38;2.17;;;26.70;52.30;;;;;;5034640;28;20026;-67
2022/06/22 16:57:11;;;;;;;3.80;0.43;;;26.70;52.20;;;;;;5035004;28;20038;-67
2022/06/22 16:59:59;;;;;;;0.40;0.40;;;26.70;53.00;;;;;;5034744;28;20509;-67
2022/06/22 17:02:44;;;;;;;0.52;0.30;;;26.70;52.80;;;;;;5034596;28;20030;-66
2022/06/22 17:05:19;;;;;;;5.40;1.67;;;26.70;51.60;;;;;;5034718;28;20026;-66
2022/06/22 17:07:57;;;;;;;2.78;0.50;;;26.70;52.00;;;;;;5034728;28;20021;-67
2022/06/22 17:10:40;;;;;;;3.75;0.50;;;26.70;52.10;;;;;;5034733;28;20061;-67
2022/06/22 17:13:12;;;;;;;5.57;2.00;;;26.70;52.30;;;;;;5033234;28;20216;-67
2022/06/22 17:16:09;;;;;;;7.90;0.85;;;26.70;52.10;;;;;;5034754;28;20499;-67
2022/06/22 17:18:41;;;;;;;3.92;0.60;;;26.60;52.20;;;;;;5030073;28;20033;-67
2022/06/22 17:21:16;;;;;;;1.85;0.38;;;26.70;52.10;;;;;;5034364;28;20021;-67
2022/06/22 17:24:09;;;;;;;0.50;0.30;;;26.60;51.60;;;;;;5034263;28;20033;-67
2022/06/22 17:26:45;;;;;;;0.25;0.22;;;26.60;51.20;;;;;;5034393;28;20480;-67
2022/06/22 17:29:28;;;;;;;0.30;0.20;;;26.60;51.10;;;;;;5034224;28;20045;-67
2022/06/22 17:31:56;;;;;;;2.20;0.65;;;26.60;51.80;;;;;;5034320;28;20466;-67
2022/06/22 17:34:53;;;;;;;1.35;0.60;;;26.60;52.40;;;;;;5034167;28;20502;-67
2022/06/22 17:37:57;;;;;;;1.15;0.95;;;26.60;52.30;;;;;;5005097;28;20044;-67
2022/06/22 17:40:34;;;;;;;2.05;0.88;;;26.50;52.60;;;;;;4984065;28;20063;-67
2022/06/22 17:43:03;;;;;;;2.35;0.77;;;26.50;53.60;;;;;;5034173;28;20494;-67
2022/06/22 17:46:00;;;;;;;1.33;1.20;;;26.50;52.60;;;;;;5033976;28;20108;-68
2022/06/22 17:48:32;;;;;;;6.05;0.82;;;26.50;52.00;;;;;;5033953;28;20430;-68
2022/06/22 17:51:04;;;;;;;0.73;0.43;;;26.50;52.40;;;;;;5033874;28;20056;-68
2022/06/22 17:53:39;;;;;;;6.53;0.80;;;26.50;52.00;;;;;;5033572;28;20075;-68
2022/06/22 17:56:21;;;;;;;0.85;0.60;;;26.50;52.30;;;;;;5033704;28;20121;-68
2022/06/22 17:59:15;;;;;;;1.85;0.50;;;26.50;52.60;;;;;;5033554;28;20037;-68
2022/06/22 18:01:49;;;;;;;1.90;0.63;;;26.50;52.30;;;;;;5011491;28;20033;-68
2022/06/22 18:04:25;;;;;;;3.22;0.65;;;26.50;52.30;;;;;;5033878;28;20053;-68
2022/06/22 18:06:53;;;;;;;0.63;0.40;;;26.50;52.30;;;;;;5033555;28;20025;-68
2022/06/22 18:09:30;;;;;;;2.80;0.68;;;26.40;52.40;;;;;;5033475;28;20032;-68
2022/06/22 18:12:14;;;;;;;1.35;1.25;;;26.40;52.70;;;;;;5033486;28;20034;-68
2022/06/22 18:14:46;;;;;;;2.13;0.53;;;26.40;52.60;;;;;;5032216;28;20426;-68
2022/06/22 18:17:18;;;;;;;2.17;1.00;;;26.40;53.10;;;;;;5033483;28;20258;-68
2022/06/22 18:19:48;;;;;;;6.45;0.85;;;26.30;53.70;;;;;;5033642;28;20033;-68
2022/06/22 18:22:20;;;;;;;5.82;1.33;;;26.30;53.60;;;;;;5033561;28;20033;-68
2022/06/22 18:24:55;;;;;;;2.78;0.88;;;26.20;54.20;;;;;;5033446;28;20100;-68
2022/06/22 18:27:42;;;;;;;8.93;0.93;;;26.20;54.40;;;;;;5033279;28;20021;-68
2022/06/22 18:30:28;;;;;;;7.78;1.65;;;26.20;54.20;;;;;;5033364;28;20542;-68
2022/06/22 18:33:02;;;;;;;4.03;0.65;;;26.20;53.90;;;;;;5033531;28;20111;-68
2022/06/22 18:36:07;;;;;;;2.95;1.88;;;26.20;54.30;;;;;;5033177;28;20033;-68
2022/06/22 18:42:09;;;;;;;1.55;0.30;;;26.20;54.20;;;;;;5007758;28;20113;-68
2022/06/22 18:44:54;;;;;;;11.15;2.60;;;26.10;54.50;;;;;;5032992;28;20033;-68
2022/06/22 18:47:38;;;;;;;1.75;0.93;;;26.10;55.10;;;;;;5032986;28;20061;-68
2022/06/22 18:50:34;;;;;;;3.45;1.05;;;26.00;55.50;;;;;;5033263;28;20017;-68
2022/06/22 18:53:30;;;;;;;6.07;1.75;;;26.00;55.70;;;;;;5032834;28;20099;-68
2022/06/22 18:56:01;;;;;;;9.40;3.47;;;26.00;56.10;;;;;;5032939;28;20034;-68
2022/06/22 18:58:41;;;;;;;2.25;0.90;;;26.00;56.50;;;;;;5032923;28;20037;-68
2022/06/22 19:01:12;;;;;;;15.68;1.52;;;25.90;56.70;;;;;;5032941;28;20505;-68
2022/06/22 19:03:52;;;;;;;2.30;0.63;;;25.80;56.90;;;;;;5032868;28;20471;-68
2022/06/22 19:06:26;;;;;;;8.52;0.80;;;25.70;57.30;;;;;;5033045;28;20026;-68
2022/06/22 19:09:03;;;;;;;4.78;0.80;;;25.70;57.70;;;;;;5033024;28;20030;-69
2022/06/22 19:11:33;;;;;;;4.65;0.90;;;25.60;58.20;;;;;;5032885;28;20040;-68
2022/06/22 19:14:11;;;;;;;4.95;0.82;;;25.60;58.10;;;;;;5032791;28;20037;-68
2022/06/22 19:16:48;;;;;;;3.22;0.90;;;25.60;58.00;;;;;;5032767;28;20455;-68
2022/06/22 19:19:35;;;;;;;1.05;0.85;;;25.60;58.20;;;;;;5032722;28;20119;-69
2022/06/22 19:22:14;;;;;;;5.55;1.73;;;25.50;58.50;;;;;;5032769;28;20022;-69
2022/06/22 19:24:48;;;;;;;5.63;0.90;;;25.40;59.00;;;;;;5032778;28;20374;-69
2022/06/22 19:27:35;;;;;;;5.93;1.10;;;25.40;58.50;;;;;;5032716;28;20025;-69
2022/06/22 19:30:03;;;;;;;3.17;0.70;;;25.40;59.20;;;;;;5033036;28;20034;-69
2022/06/22 19:32:33;;;;;;;9.38;1.13;;;25.30;59.50;;;;;;5031308;28;20036;-69
2022/06/22 19:35:08;;;;;;;8.32;2.05;;;25.30;59.60;;;;;;5031293;28;20022;-69
2022/06/22 19:38:04;;;;;;;5.95;0.73;;;25.30;58.90;;;;;;5032482;28;20017;-69
2022/06/22 19:40:47;;;;;;;3.47;2.45;;;25.40;58.20;;;;;;5032560;28;20540;-69
2022/06/22 19:43:50;;;;;;;4.30;1.70;;;25.40;58.30;;;;;;5032765;28;20124;-68
2022/06/22 19:46:52;;;;;;;2.37;2.13;;;25.40;58.20;;;;;;5032405;28;20368;-69
2022/06/22 19:49:23;;;;;;;4.53;1.58;;;25.50;58.00;;;;;;5032622;28;20065;-68
2022/06/22 19:52:00;;;;;;;3.67;1.38;;;25.50;57.90;;;;;;5032255;28;20025;-68
2022/06/22 19:54:45;;;;;;;7.20;2.50;;;25.60;57.70;;;;;;5032645;28;20029;-68
2022/06/22 19:57:10;;;;;;;;;;;25.50;58.00;;;;;;5032991;28;20071;-69
2022/06/22 19:59:39;;;;;;;4.95;1.65;;;25.40;58.40;;;;;;5033078;28;20364;-68
2022/06/22 20:02:08;;;;;;;7.55;1.38;;;25.40;58.80;;;;;;5035963;28;20025;-69
2022/06/22 20:04:51;;;;;;;1.20;1.00;;;25.40;59.00;;;;;;5036005;28;20025;-69
2022/06/22 20:07:37;;;;;;;5.45;1.50;;;25.30;59.20;;;;;;5036033;28;20415;-69
2022/06/22 20:10:27;;;;;;;5.80;1.13;;;25.30;59.20;;;;;;5035835;28;20106;-69
2022/06/22 20:13:11;;;;;;;7.38;2.33;;;25.30;59.30;;;;;;5035744;28;20044;-69
2022/06/22 20:15:45;;;;;;;2.47;1.58;;;25.20;59.50;;;;;;5036031;28;20372;-69
2022/06/22 20:18:11;;;;;;;7.85;2.90;;;24.90;60.20;;;;;;5035601;28;20084;-69
2022/06/22 20:20:40;;;;;;;5.05;1.17;;;24.80;60.80;;;;;;5035543;28;20044;-69
2022/06/22 20:23:16;;;;;;;6.30;1.67;;;24.70;61.30;;;;;;5035537;28;20032;-69
2022/06/22 20:26:00;;;;;;;5.30;1.00;;;24.70;61.80;;;;;;5035589;28;20112;-69
2022/06/22 20:28:35;;;;;;;1.02;0.98;;;24.60;62.00;;;;;;5035621;28;20029;-69
2022/06/22 20:31:19;;;;;;;1.63;1.52;;;24.50;62.30;;;;;;5035552;28;20048;-69
2022/06/22 20:33:53;;;;;;;1.60;0.77;;;24.50;62.40;;;;;;5035528;28;20037;-69
2022/06/22 20:36:18;;;;;;;4.20;1.45;;;24.30;62.70;;;;;;5034141;28;20037;-69
2022/06/22 20:38:44;;;;;;;3.00;0.85;;;24.40;62.60;;;;;;5035406;28;20024;-69
2022/06/22 20:44:06;;;;;;;5.03;1.35;;;24.50;62.40;;;;;;5035379;28;20545;-69
2022/06/22 20:46:49;;;;;;;8.02;0.95;;;24.40;62.50;;;;;;5035201;28;20097;-69
2022/06/22 20:49:22;;;;;;;3.00;1.40;;;24.50;62.50;;;;;;5035335;28;20548;-69
2022/06/22 20:51:59;;;;;;;3.63;1.52;;;24.60;62.10;;;;;;5034694;28;20036;-69
2022/06/22 20:54:35;;;;;;;5.28;2.00;;;24.60;62.60;;;;;;5035068;28;20060;-69
2022/06/22 20:57:24;;;;;;;2.50;1.20;;;24.50;63.10;;;;;;5033910;28;20040;-69
2022/06/22 20:59:59;;;;;;;3.83;1.70;;;24.30;63.90;;;;;;5035028;28;20053;-69
2022/06/22 21:02:55;;;;;;;6.43;2.42;;;24.20;64.40;;;;;;5034835;28;20025;-69
2022/06/22 21:05:27;;;;;;;4.68;1.38;;;24.20;64.80;;;;;;5017224;28;20029;-69
2022/06/22 21:07:53;;;;;;;4.47;1.50;;;24.20;64.70;;;;;;5034745;28;20096;-69
2022/06/22 21:10:33;;;;;;;3.17;1.63;;;24.20;64.90;;;;;;5034934;28;20022;-69
2022/06/22 21:12:59;;;;;;;5.78;2.05;;;24.20;65.90;;;;;;5033188;28;20041;-69
2022/06/22 21:15:27;;;;;;;2.78;1.48;;;24.10;66.50;;;;;;5034583;28;20024;-69